createdAt,value
2017-12-27T01:38:24.703Z,4.70
2017-12-27T01:38:25.264Z,4.72
2017-12-27T01:38:25.863Z,4.62
2017-12-27T01:38:26.464Z,4.69
2017-12-27T01:38:27.064Z,4.61
2017-12-27T01:38:27.663Z,4.55
2017-12-27T01:38:28.263Z,4.59
2017-12-27T01:38:28.863Z,4.69
2017-12-27T01:39:22.322Z,4.67
2017-12-27T01:39:22.918Z,4.64
2017-12-27T01:39:23.519Z,4.65
2017-12-27T01:39:24.117Z,4.65
2017-12-27T01:39:24.717Z,4.64
2017-12-27T01:39:25.316Z,4.62
2017-12-27T01:39:25.921Z,4.64
2017-12-27T01:39:26.515Z,4.61
2017-12-27T01:40:19.978Z,4.65
2017-12-27T01:40:20.571Z,4.62
2017-12-27T01:40:21.169Z,4.69
2017-12-27T01:40:21.770Z,4.67
2017-12-27T01:40:22.371Z,4.72
2017-12-27T01:40:22.970Z,4.62
2017-12-27T01:40:23.569Z,4.69
2017-12-27T01:40:24.169Z,4.69
2017-12-27T01:41:18.652Z,4.67
2017-12-27T01:41:19.244Z,4.64
2017-12-27T01:41:19.846Z,4.61
2017-12-27T01:41:20.445Z,4.67
2017-12-27T01:41:21.044Z,4.67
2017-12-27T01:41:21.644Z,4.59
2017-12-27T01:41:22.245Z,4.57
2017-12-27T01:41:22.844Z,4.65
2017-12-27T01:42:17.328Z,4.64
2017-12-27T01:42:17.923Z,4.72
2017-12-27T01:42:18.522Z,4.64
2017-12-27T01:42:19.121Z,4.62
2017-12-27T01:42:19.721Z,4.65
2017-12-27T01:42:20.321Z,4.65
2017-12-27T01:42:20.920Z,4.72
2017-12-27T01:42:21.521Z,4.64
2017-12-27T01:43:16.001Z,4.73
2017-12-27T01:43:16.597Z,4.65
2017-12-27T01:43:17.198Z,4.77
2017-12-27T01:43:17.797Z,4.64
2017-12-27T01:43:18.397Z,4.70
2017-12-27T01:43:18.997Z,4.65
2017-12-27T01:43:19.596Z,4.61
2017-12-27T01:43:20.196Z,4.73
2017-12-27T01:44:13.679Z,4.75
2017-12-27T01:44:14.249Z,4.73
2017-12-27T01:44:14.849Z,4.72
2017-12-27T01:44:15.451Z,4.72
2017-12-27T01:44:16.049Z,4.72
2017-12-27T01:44:16.653Z,4.75
2017-12-27T01:44:17.251Z,4.75
2017-12-27T01:44:17.850Z,4.69
2017-12-27T01:45:12.330Z,4.73
2017-12-27T01:45:12.927Z,4.69
2017-12-27T01:45:13.525Z,4.69
2017-12-27T01:45:14.126Z,4.69
2017-12-27T01:45:14.725Z,4.67
2017-12-27T01:45:15.325Z,4.67
2017-12-27T01:45:15.925Z,4.79
2017-12-27T01:45:16.533Z,4.67
2017-12-27T01:46:11.005Z,4.70
2017-12-27T01:46:11.602Z,4.79
2017-12-27T01:46:12.225Z,4.70
2017-12-27T01:46:12.800Z,4.77
2017-12-27T01:46:13.398Z,4.77
2017-12-27T01:46:14.014Z,4.79
2017-12-27T01:46:14.600Z,4.75
2017-12-27T01:46:15.201Z,4.83
2017-12-27T01:47:08.660Z,4.80
2017-12-27T01:47:09.255Z,4.84
2017-12-27T01:47:09.853Z,4.77
2017-12-27T01:47:10.452Z,4.77
2017-12-27T01:47:11.055Z,4.79
2017-12-27T01:47:11.657Z,4.77
2017-12-27T01:47:12.254Z,4.88
2017-12-27T01:47:12.852Z,4.80
2017-12-27T01:48:06.310Z,4.83
2017-12-27T01:48:06.906Z,4.84
2017-12-27T01:48:07.506Z,4.84
2017-12-27T01:48:08.106Z,4.86
2017-12-27T01:48:08.705Z,4.84
2017-12-27T01:48:09.310Z,4.89
2017-12-27T01:48:09.911Z,4.91
2017-12-27T01:48:10.505Z,4.84
2017-12-27T01:49:05.022Z,4.88
2017-12-27T01:49:05.580Z,4.91
2017-12-27T01:49:06.179Z,4.89
2017-12-27T01:49:06.780Z,4.86
2017-12-27T01:49:07.379Z,4.91
2017-12-27T01:49:07.987Z,4.92
2017-12-27T01:49:08.580Z,4.94
2017-12-27T01:49:09.178Z,4.92
2017-12-27T01:50:03.661Z,4.88
2017-12-27T01:50:04.257Z,4.98
2017-12-27T01:50:04.862Z,4.91
2017-12-27T01:50:05.456Z,4.98
2017-12-27T01:50:06.057Z,4.95
2017-12-27T01:50:06.660Z,4.92
2017-12-27T01:50:07.256Z,5.01
2017-12-27T01:50:07.856Z,4.92
2017-12-27T01:51:02.343Z,4.96
2017-12-27T01:51:02.933Z,4.95
2017-12-27T01:51:03.533Z,4.95
2017-12-27T01:51:04.132Z,5.01
2017-12-27T01:51:04.732Z,5.04
2017-12-27T01:51:05.335Z,4.99
2017-12-27T01:51:05.931Z,4.99
2017-12-27T01:51:06.532Z,4.95
2017-12-27T01:51:59.989Z,4.98
2017-12-27T01:52:00.586Z,4.99
2017-12-27T01:52:01.185Z,5.05
2017-12-27T01:52:01.785Z,5.01
2017-12-27T01:52:02.386Z,5.02
2017-12-27T01:52:02.987Z,5.02
2017-12-27T01:52:03.584Z,5.01
2017-12-27T01:52:04.186Z,4.98
2017-12-27T01:52:57.648Z,4.96
2017-12-27T01:52:58.236Z,5.01
2017-12-27T01:52:58.836Z,5.01
2017-12-27T01:52:59.437Z,5.02
2017-12-27T01:53:00.036Z,5.02
2017-12-27T01:53:00.638Z,5.01
2017-12-27T01:53:01.236Z,4.96
2017-12-27T01:53:01.836Z,5.02
2017-12-27T01:53:55.291Z,5.05
2017-12-27T01:53:55.888Z,5.05
2017-12-27T01:53:56.489Z,5.01
2017-12-27T01:53:57.088Z,5.05
2017-12-27T01:53:57.688Z,5.04
2017-12-27T01:53:58.290Z,5.07
2017-12-27T01:53:58.888Z,5.10
2017-12-27T01:53:59.488Z,5.05
2017-12-27T01:55:04.654Z,5.05
2017-12-27T01:55:05.215Z,5.02
2017-12-27T01:55:05.815Z,5.01
2017-12-27T01:55:06.415Z,4.99
2017-12-27T01:55:07.025Z,4.98
2017-12-27T01:55:07.615Z,5.10
2017-12-27T01:55:08.214Z,5.02
2017-12-27T01:55:08.813Z,5.01
2017-12-27T01:56:03.295Z,5.07
2017-12-27T01:56:03.890Z,5.04
2017-12-27T01:56:04.490Z,5.13
2017-12-27T01:56:05.088Z,5.04
2017-12-27T01:56:05.689Z,5.12
2017-12-27T01:56:06.290Z,5.17
2017-12-27T01:56:06.888Z,5.10
2017-12-27T01:56:07.487Z,5.01
2017-12-27T01:57:00.948Z,5.10
2017-12-27T01:57:01.543Z,5.13
2017-12-27T01:57:02.143Z,5.16
2017-12-27T01:57:02.749Z,5.12
2017-12-27T01:57:03.342Z,5.14
2017-12-27T01:57:03.942Z,5.20
2017-12-27T01:57:04.543Z,5.14
2017-12-27T01:57:05.143Z,5.10
2017-12-27T01:57:59.622Z,5.14
2017-12-27T01:58:00.216Z,5.16
2017-12-27T01:58:00.816Z,5.17
2017-12-27T01:58:01.416Z,5.13
2017-12-27T01:58:02.015Z,5.10
2017-12-27T01:58:02.618Z,5.12
2017-12-27T01:58:03.218Z,5.12
2017-12-27T01:58:03.816Z,5.14
2017-12-27T01:58:57.272Z,5.12
2017-12-27T01:58:57.870Z,5.13
2017-12-27T01:58:58.469Z,5.22
2017-12-27T01:58:59.071Z,5.25
2017-12-27T01:58:59.668Z,5.23
2017-12-27T01:59:00.269Z,5.20
2017-12-27T01:59:00.867Z,5.13
2017-12-27T01:59:01.470Z,5.10
2017-12-27T01:59:54.924Z,5.27
2017-12-27T01:59:55.523Z,5.22
2017-12-27T01:59:56.121Z,5.23
2017-12-27T01:59:56.722Z,5.14
2017-12-27T01:59:57.321Z,5.27
2017-12-27T01:59:57.921Z,5.23
2017-12-27T01:59:58.519Z,5.19
2017-12-27T01:59:59.120Z,5.19
2017-12-27T02:00:53.631Z,5.28
2017-12-27T02:00:54.196Z,5.19
2017-12-27T02:00:54.796Z,5.22
2017-12-27T02:00:55.398Z,5.13
2017-12-27T02:00:55.994Z,5.16
2017-12-27T02:00:56.602Z,5.25
2017-12-27T02:00:57.196Z,5.23
2017-12-27T02:00:57.794Z,5.20
2017-12-27T02:01:52.275Z,5.30
2017-12-27T02:01:52.871Z,5.23
2017-12-27T02:01:53.471Z,5.32
2017-12-27T02:01:54.072Z,5.31
2017-12-27T02:01:54.672Z,5.30
2017-12-27T02:01:55.272Z,5.19
2017-12-27T02:01:55.870Z,5.19
2017-12-27T02:01:56.474Z,5.28
2017-12-27T02:02:49.926Z,5.32
2017-12-27T02:02:50.525Z,5.34
2017-12-27T02:02:51.125Z,5.32
2017-12-27T02:02:51.724Z,5.28
2017-12-27T02:02:52.323Z,5.34
2017-12-27T02:02:52.923Z,5.35
2017-12-27T02:02:53.524Z,5.30
2017-12-27T02:02:54.123Z,5.32
2017-12-27T02:03:48.602Z,5.28
2017-12-27T02:03:49.199Z,5.28
2017-12-27T02:03:49.800Z,5.31
2017-12-27T02:03:50.399Z,5.25
2017-12-27T02:03:50.999Z,5.31
2017-12-27T02:03:51.605Z,5.32
2017-12-27T02:03:52.201Z,5.28
2017-12-27T02:03:52.800Z,5.25
2017-12-27T02:04:46.255Z,5.32
2017-12-27T02:04:46.852Z,5.35
2017-12-27T02:04:47.451Z,5.30
2017-12-27T02:04:48.052Z,5.31
2017-12-27T02:04:48.650Z,5.37
2017-12-27T02:04:49.251Z,5.31
2017-12-27T02:04:49.852Z,5.35
2017-12-27T02:04:50.451Z,5.31
2017-12-27T02:05:43.906Z,5.35
2017-12-27T02:05:44.503Z,5.31
2017-12-27T02:05:45.102Z,5.40
2017-12-27T02:05:45.703Z,5.37
2017-12-27T02:05:46.302Z,5.32
2017-12-27T02:05:46.902Z,5.35
2017-12-27T02:05:47.503Z,5.41
2017-12-27T02:05:48.101Z,5.41
2017-12-27T02:06:42.615Z,5.40
2017-12-27T02:06:43.177Z,5.40
2017-12-27T02:06:43.777Z,5.31
2017-12-27T02:06:44.376Z,5.37
2017-12-27T02:06:44.978Z,5.40
2017-12-27T02:06:45.579Z,5.40
2017-12-27T02:06:46.177Z,5.41
2017-12-27T02:06:46.781Z,5.40
2017-12-27T02:07:40.234Z,5.45
2017-12-27T02:07:40.831Z,5.37
2017-12-27T02:07:41.436Z,5.37
2017-12-27T02:07:42.030Z,5.37
2017-12-27T02:07:42.630Z,5.46
2017-12-27T02:07:43.230Z,5.40
2017-12-27T02:07:43.829Z,5.41
2017-12-27T02:07:44.430Z,5.45
2017-12-27T02:08:37.885Z,5.50
2017-12-27T02:08:38.489Z,5.43
2017-12-27T02:08:39.084Z,5.48
2017-12-27T02:08:39.686Z,5.45
2017-12-27T02:08:40.280Z,5.43
2017-12-27T02:08:40.879Z,5.41
2017-12-27T02:08:41.483Z,5.41
2017-12-27T02:08:42.081Z,5.46
2017-12-27T02:09:36.560Z,5.45
2017-12-27T02:09:37.170Z,5.40
2017-12-27T02:09:37.757Z,5.35
2017-12-27T02:09:38.360Z,5.46
2017-12-27T02:09:38.956Z,5.43
2017-12-27T02:09:39.558Z,5.46
2017-12-27T02:09:40.157Z,5.45
2017-12-27T02:09:40.756Z,5.46
2017-12-27T02:10:35.236Z,5.48
2017-12-27T02:10:35.839Z,5.43
2017-12-27T02:10:36.432Z,5.45
2017-12-27T02:10:37.034Z,5.48
2017-12-27T02:10:37.636Z,5.41
2017-12-27T02:10:38.232Z,5.46
2017-12-27T02:10:38.832Z,5.49
2017-12-27T02:10:39.432Z,5.46
2017-12-27T02:11:33.945Z,5.46
2017-12-27T02:11:34.513Z,5.52
2017-12-27T02:11:35.108Z,5.50
2017-12-27T02:11:35.708Z,5.48
2017-12-27T02:11:36.308Z,5.50
2017-12-27T02:11:36.909Z,5.50
2017-12-27T02:11:37.508Z,5.48
2017-12-27T02:11:38.108Z,5.52
2017-12-27T02:12:32.587Z,5.49
2017-12-27T02:12:33.185Z,5.56
2017-12-27T02:12:33.784Z,5.53
2017-12-27T02:12:34.384Z,5.53
2017-12-27T02:12:34.983Z,5.56
2017-12-27T02:12:35.584Z,5.52
2017-12-27T02:12:36.184Z,5.41
2017-12-27T02:12:36.783Z,5.57
2017-12-27T02:13:30.241Z,5.56
2017-12-27T02:13:30.836Z,5.46
2017-12-27T02:13:31.438Z,5.56
2017-12-27T02:13:32.037Z,5.50
2017-12-27T02:13:32.637Z,5.52
2017-12-27T02:13:33.236Z,5.53
2017-12-27T02:13:33.836Z,5.50
2017-12-27T02:13:34.436Z,5.59
2017-12-27T02:14:27.893Z,5.48
2017-12-27T02:14:28.488Z,5.56
2017-12-27T02:14:29.088Z,5.63
2017-12-27T02:14:29.686Z,5.59
2017-12-27T02:14:30.288Z,5.60
2017-12-27T02:14:30.888Z,5.57
2017-12-27T02:14:31.487Z,5.57
2017-12-27T02:14:32.086Z,5.59
2017-12-27T02:15:25.543Z,5.63
2017-12-27T02:15:26.140Z,5.64
2017-12-27T02:15:26.739Z,5.55
2017-12-27T02:15:27.339Z,5.59
2017-12-27T02:15:27.940Z,5.57
2017-12-27T02:15:28.539Z,5.63
2017-12-27T02:15:29.143Z,5.53
2017-12-27T02:15:29.739Z,5.57
2017-12-27T02:16:23.194Z,5.52
2017-12-27T02:16:23.792Z,5.59
2017-12-27T02:16:24.391Z,5.57
2017-12-27T02:16:24.992Z,5.53
2017-12-27T02:16:25.590Z,5.63
2017-12-27T02:16:26.194Z,5.64
2017-12-27T02:16:26.788Z,5.60
2017-12-27T02:16:27.390Z,5.67
2017-12-27T02:17:20.879Z,5.59
2017-12-27T02:17:21.444Z,5.66
2017-12-27T02:17:22.045Z,5.63
2017-12-27T02:17:22.642Z,5.64
2017-12-27T02:17:23.242Z,5.59
2017-12-27T02:17:23.842Z,5.60
2017-12-27T02:17:24.441Z,5.60
2017-12-27T02:17:25.041Z,5.60
2017-12-27T02:18:18.499Z,5.68
2017-12-27T02:18:19.096Z,5.59
2017-12-27T02:18:19.695Z,5.63
2017-12-27T02:18:20.298Z,5.64
2017-12-27T02:18:20.894Z,5.68
2017-12-27T02:18:21.494Z,5.68
2017-12-27T02:18:22.093Z,5.60
2017-12-27T02:18:22.694Z,5.63
2017-12-27T02:19:17.189Z,5.68
2017-12-27T02:19:17.770Z,5.63
2017-12-27T02:19:18.369Z,5.60
2017-12-27T02:19:18.969Z,5.67
2017-12-27T02:19:19.570Z,5.66
2017-12-27T02:19:20.168Z,5.68
2017-12-27T02:19:20.769Z,5.64
2017-12-27T02:19:21.372Z,5.64
2017-12-27T02:20:15.848Z,5.64
2017-12-27T02:20:16.446Z,5.64
2017-12-27T02:20:17.045Z,5.73
2017-12-27T02:20:17.644Z,5.70
2017-12-27T02:20:18.245Z,5.66
2017-12-27T02:20:18.846Z,5.64
2017-12-27T02:20:19.444Z,5.67
2017-12-27T02:20:20.044Z,5.73
2017-12-27T02:21:14.524Z,5.73
2017-12-27T02:21:15.121Z,5.77
2017-12-27T02:21:15.721Z,5.74
2017-12-27T02:21:16.320Z,5.64
2017-12-27T02:21:16.920Z,5.63
2017-12-27T02:21:17.526Z,5.74
2017-12-27T02:21:18.122Z,5.73
2017-12-27T02:21:18.720Z,5.71
2017-12-27T02:22:12.178Z,5.56
2017-12-27T02:22:12.774Z,5.71
2017-12-27T02:22:13.373Z,5.75
2017-12-27T02:22:13.973Z,5.64
2017-12-27T02:22:14.573Z,5.60
2017-12-27T02:22:15.173Z,5.75
2017-12-27T02:22:15.775Z,5.67
2017-12-27T02:22:16.372Z,5.66
2017-12-27T02:23:10.885Z,5.73
2017-12-27T02:23:11.449Z,5.67
2017-12-27T02:23:12.049Z,5.77
2017-12-27T02:23:12.648Z,5.60
2017-12-27T02:23:13.248Z,5.71
2017-12-27T02:23:13.848Z,5.70
2017-12-27T02:23:14.450Z,5.77
2017-12-27T02:23:15.049Z,5.74
2017-12-27T02:24:09.527Z,5.77
2017-12-27T02:24:10.123Z,5.64
2017-12-27T02:24:10.725Z,5.77
2017-12-27T02:24:11.324Z,5.68
2017-12-27T02:24:11.923Z,5.71
2017-12-27T02:24:12.524Z,5.68
2017-12-27T02:24:13.123Z,5.67
2017-12-27T02:24:13.723Z,5.67
2017-12-27T02:25:08.204Z,5.70
2017-12-27T02:25:08.800Z,5.68
2017-12-27T02:25:09.400Z,5.74
2017-12-27T02:25:09.999Z,5.78
2017-12-27T02:25:10.599Z,5.70
2017-12-27T02:25:11.200Z,5.67
2017-12-27T02:25:11.800Z,5.68
2017-12-27T02:25:12.398Z,5.78
2017-12-27T02:26:05.857Z,5.70
2017-12-27T02:26:06.453Z,5.78
2017-12-27T02:26:07.052Z,5.77
2017-12-27T02:26:07.656Z,5.73
2017-12-27T02:26:08.251Z,5.78
2017-12-27T02:26:08.855Z,5.73
2017-12-27T02:26:09.453Z,5.75
2017-12-27T02:26:10.051Z,5.77
2017-12-27T02:27:03.507Z,5.74
2017-12-27T02:27:04.103Z,5.73
2017-12-27T02:27:04.704Z,5.77
2017-12-27T02:27:05.309Z,5.75
2017-12-27T02:27:05.902Z,5.74
2017-12-27T02:27:06.503Z,5.67
2017-12-27T02:27:07.104Z,5.83
2017-12-27T02:27:07.704Z,5.77
2017-12-27T02:28:02.182Z,5.73
2017-12-27T02:28:02.779Z,5.83
2017-12-27T02:28:03.378Z,5.81
2017-12-27T02:28:03.978Z,5.77
2017-12-27T02:28:04.578Z,5.77
2017-12-27T02:28:05.178Z,5.75
2017-12-27T02:28:05.776Z,5.83
2017-12-27T02:28:06.377Z,5.78
2017-12-27T02:28:59.866Z,5.73
2017-12-27T02:29:00.432Z,5.81
2017-12-27T02:29:01.029Z,5.77
2017-12-27T02:29:01.631Z,5.85
2017-12-27T02:29:02.232Z,5.71
2017-12-27T02:29:02.830Z,5.83
2017-12-27T02:29:03.429Z,5.81
2017-12-27T02:29:04.031Z,5.77
2017-12-27T02:29:57.493Z,5.73
2017-12-27T02:29:58.083Z,5.85
2017-12-27T02:29:58.684Z,5.77
2017-12-27T02:29:59.288Z,5.85
2017-12-27T02:29:59.883Z,5.78
2017-12-27T02:30:00.483Z,5.83
2017-12-27T02:30:01.083Z,5.75
2017-12-27T02:30:01.683Z,5.86
2017-12-27T02:30:56.162Z,5.77
2017-12-27T02:30:56.758Z,5.85
2017-12-27T02:30:57.363Z,5.71
2017-12-27T02:30:57.957Z,5.82
2017-12-27T02:30:58.560Z,5.75
2017-12-27T02:30:59.158Z,5.71
2017-12-27T02:30:59.756Z,5.82
2017-12-27T02:31:00.356Z,5.82
2017-12-27T02:31:53.813Z,5.73
2017-12-27T02:31:54.410Z,5.74
2017-12-27T02:31:55.009Z,5.73
2017-12-27T02:31:55.617Z,5.82
2017-12-27T02:31:56.211Z,5.73
2017-12-27T02:31:56.809Z,5.78
2017-12-27T02:31:57.410Z,5.73
2017-12-27T02:31:58.009Z,5.83
2017-12-27T02:32:52.489Z,5.75
2017-12-27T02:32:53.086Z,5.73
2017-12-27T02:32:53.685Z,5.81
2017-12-27T02:32:54.285Z,5.77
2017-12-27T02:32:54.885Z,5.85
2017-12-27T02:32:55.485Z,5.85
2017-12-27T02:32:56.086Z,5.75
2017-12-27T02:32:56.683Z,5.81
2017-12-27T02:33:51.165Z,5.85
2017-12-27T02:33:51.762Z,5.81
2017-12-27T02:33:52.361Z,5.83
2017-12-27T02:33:52.962Z,5.92
2017-12-27T02:33:53.561Z,5.78
2017-12-27T02:33:54.161Z,5.88
2017-12-27T02:33:54.761Z,5.85
2017-12-27T02:33:55.360Z,5.83
2017-12-27T02:51:37.384Z,5.64
2017-12-27T02:51:37.954Z,5.57
2017-12-27T02:51:38.559Z,5.59
2017-12-27T02:51:39.151Z,5.55
2017-12-27T02:51:39.753Z,5.60
2017-12-27T02:51:40.353Z,5.50
2017-12-27T02:51:40.953Z,5.59
2017-12-27T02:51:41.552Z,5.56
2017-12-27T02:52:35.011Z,5.55
2017-12-27T02:52:35.606Z,5.55
2017-12-27T02:52:36.205Z,5.45
2017-12-27T02:52:36.806Z,5.55
2017-12-27T02:52:37.405Z,5.49
2017-12-27T02:52:38.009Z,5.49
2017-12-27T02:52:38.606Z,5.45
2017-12-27T02:52:39.205Z,5.50
2017-12-27T02:53:32.696Z,5.50
2017-12-27T02:53:33.259Z,5.45
2017-12-27T02:53:33.859Z,5.48
2017-12-27T02:53:34.459Z,5.52
2017-12-27T02:53:35.057Z,5.49
2017-12-27T02:53:35.658Z,5.46
2017-12-27T02:53:36.258Z,5.50
2017-12-27T02:53:36.858Z,5.50
2017-12-27T02:54:31.362Z,5.45
2017-12-27T02:54:31.934Z,5.49
2017-12-27T02:54:32.534Z,5.49
2017-12-27T02:54:33.133Z,5.49
2017-12-27T02:54:33.733Z,5.49
2017-12-27T02:54:34.338Z,5.50
2017-12-27T02:54:34.931Z,5.52
2017-12-27T02:54:35.532Z,5.49
2017-12-27T02:55:29.019Z,5.41
2017-12-27T02:55:29.586Z,5.41
2017-12-27T02:55:30.228Z,5.40
2017-12-27T02:55:30.786Z,5.38
2017-12-27T02:55:31.386Z,5.46
2017-12-27T02:55:31.986Z,5.37
2017-12-27T02:55:32.584Z,5.48
2017-12-27T02:55:33.187Z,5.50
2017-12-27T02:56:26.671Z,5.38
2017-12-27T02:56:27.242Z,5.49
2017-12-27T02:56:27.839Z,5.38
2017-12-27T02:56:28.438Z,5.40
2017-12-27T02:56:29.037Z,5.43
2017-12-27T02:56:29.639Z,5.38
2017-12-27T02:56:30.237Z,5.38
2017-12-27T02:56:30.842Z,5.35
2017-12-27T02:57:25.346Z,5.35
2017-12-27T02:57:25.939Z,5.35
2017-12-27T02:57:26.511Z,5.35
2017-12-27T02:57:27.111Z,5.43
2017-12-27T02:57:27.713Z,5.48
2017-12-27T02:57:28.313Z,5.34
2017-12-27T02:57:28.911Z,5.48
2017-12-27T02:57:29.510Z,5.35
2017-12-27T02:58:23.992Z,5.34
2017-12-27T02:58:24.588Z,5.45
2017-12-27T02:58:25.190Z,5.35
2017-12-27T02:58:25.788Z,5.48
2017-12-27T02:58:26.388Z,5.43
2017-12-27T02:58:26.988Z,5.34
2017-12-27T02:58:27.589Z,5.49
2017-12-27T02:58:28.188Z,5.38
2017-12-27T02:59:23.214Z,5.40
2017-12-27T02:59:23.776Z,5.38
2017-12-27T02:59:24.376Z,5.38
2017-12-27T02:59:24.977Z,5.40
2017-12-27T02:59:25.576Z,5.35
2017-12-27T02:59:26.176Z,5.41
2017-12-27T03:02:15.015Z,5.31
2017-12-27T03:03:28.432Z,5.40
2017-12-27T03:03:29.029Z,5.37
2017-12-27T03:03:29.628Z,5.41
2017-12-27T03:03:30.228Z,5.43
2017-12-27T03:03:30.828Z,5.41
2017-12-27T03:03:31.429Z,5.41
2017-12-27T03:03:32.030Z,5.38
2017-12-27T03:03:32.628Z,5.45
2017-12-27T03:04:27.139Z,5.32
2017-12-27T03:04:27.703Z,5.35
2017-12-27T03:04:28.302Z,5.40
2017-12-27T03:04:28.902Z,5.34
2017-12-27T03:04:29.508Z,5.45
2017-12-27T03:04:30.105Z,5.41
2017-12-27T03:04:30.712Z,5.34
2017-12-27T03:04:31.304Z,5.37
2017-12-27T03:05:25.810Z,5.38
2017-12-27T03:05:26.379Z,5.41
2017-12-27T03:05:26.980Z,5.40
2017-12-27T03:05:27.608Z,5.41
2017-12-27T03:05:28.183Z,5.34
2017-12-27T03:05:28.777Z,5.37
2017-12-27T03:05:29.379Z,5.41
2017-12-27T03:05:29.976Z,5.38
2017-12-27T03:06:23.436Z,5.38
2017-12-27T03:06:24.032Z,5.34
2017-12-27T03:06:24.632Z,5.37
2017-12-27T03:06:25.231Z,5.40
2017-12-27T03:06:25.831Z,5.40
2017-12-27T03:06:26.432Z,5.40
2017-12-27T03:06:27.035Z,5.34
2017-12-27T03:06:27.630Z,5.45
2017-12-27T03:07:22.110Z,5.31
2017-12-27T03:07:22.706Z,5.41
2017-12-27T03:07:23.310Z,5.43
2017-12-27T03:07:23.905Z,5.32
2017-12-27T03:07:24.504Z,5.45
2017-12-27T03:07:25.146Z,5.49
2017-12-27T03:07:25.746Z,5.37
2017-12-27T03:07:26.322Z,5.46
2017-12-27T03:08:21.362Z,5.34
2017-12-27T03:08:21.895Z,5.38
2017-12-27T03:08:22.494Z,5.38
2017-12-27T03:08:23.093Z,5.37
2017-12-27T03:08:23.693Z,5.40
2017-12-27T03:08:24.293Z,5.35
2017-12-27T03:09:18.338Z,5.35
2017-12-27T03:09:18.933Z,5.31
2017-12-27T03:09:19.533Z,5.43
2017-12-27T03:09:20.137Z,5.32
2017-12-27T03:09:20.734Z,5.34
2017-12-27T03:09:21.333Z,5.50
2017-12-27T03:09:21.932Z,5.48
2017-12-27T03:09:22.533Z,5.40
2017-12-27T03:10:16.015Z,5.34
2017-12-27T03:10:16.584Z,5.41
2017-12-27T03:10:17.184Z,5.46
2017-12-27T03:10:17.788Z,5.48
2017-12-27T03:10:18.384Z,5.48
2017-12-27T03:10:18.984Z,5.40
2017-12-27T03:10:19.589Z,5.46
2017-12-27T03:10:20.197Z,5.40
2017-12-27T03:11:14.662Z,5.32
2017-12-27T03:11:15.260Z,5.34
2017-12-27T03:11:15.859Z,5.40
2017-12-27T03:11:16.458Z,5.49
2017-12-27T03:11:17.058Z,5.49
2017-12-27T03:11:17.659Z,5.37
2017-12-27T03:11:18.257Z,5.38
2017-12-27T03:11:18.857Z,5.34
2017-12-27T03:12:16.308Z,5.46
2017-12-27T03:12:16.905Z,5.46
2017-12-27T03:12:17.503Z,5.48
2017-12-27T03:13:14.984Z,5.48
2017-12-27T03:13:15.579Z,5.40
2017-12-27T03:13:16.179Z,5.48
2017-12-27T03:14:09.668Z,5.49
2017-12-27T03:14:10.263Z,5.38
2017-12-27T03:14:10.863Z,5.48
2017-12-27T03:14:11.467Z,5.35
2017-12-27T03:14:12.063Z,5.41
2017-12-27T03:14:12.741Z,5.45
2017-12-27T03:14:13.281Z,5.41
2017-12-27T03:14:13.864Z,5.35
2017-12-27T03:15:08.374Z,5.50
2017-12-27T03:15:08.938Z,5.45
2017-12-27T03:15:09.537Z,5.46
2017-12-27T03:15:10.141Z,5.48
2017-12-27T03:15:10.737Z,5.40
2017-12-27T03:15:11.338Z,5.43
2017-12-27T03:15:11.939Z,5.43
2017-12-27T03:15:12.537Z,5.41
2017-12-27T03:16:06.504Z,5.49
2017-12-27T03:16:07.102Z,5.41
2017-12-27T03:16:07.701Z,5.40
2017-12-27T03:16:08.300Z,5.41
2017-12-27T03:16:08.907Z,5.37
2017-12-27T03:16:09.502Z,5.48
2017-12-27T03:16:10.101Z,5.40
2017-12-27T03:17:03.646Z,5.38
2017-12-27T03:17:04.243Z,5.48
2017-12-27T03:17:04.885Z,5.38
2017-12-27T03:17:05.452Z,5.41
2017-12-27T03:17:07.629Z,5.38
2017-12-27T03:17:08.139Z,5.43
2017-12-27T03:18:03.141Z,5.46
2017-12-27T03:18:03.736Z,5.46
2017-12-27T03:18:04.336Z,5.45
2017-12-27T03:18:04.935Z,5.48
2017-12-27T03:18:05.534Z,5.38
2017-12-27T03:18:06.173Z,5.37
2017-12-27T03:18:06.748Z,5.37
2017-12-27T03:18:07.340Z,5.53
2017-12-27T03:19:00.792Z,5.45
2017-12-27T03:19:01.389Z,5.48
2017-12-27T03:19:01.988Z,5.41
2017-12-27T03:19:02.591Z,5.40
2017-12-27T03:19:03.189Z,5.37
2017-12-27T03:19:03.788Z,5.40
2017-12-27T03:19:04.392Z,5.46
2017-12-27T03:19:04.987Z,5.48
2017-12-27T03:19:59.466Z,5.37
2017-12-27T03:20:00.064Z,5.38
2017-12-27T03:20:00.664Z,5.37
2017-12-27T03:20:01.268Z,5.49
2017-12-27T03:20:01.867Z,5.55
2017-12-27T03:20:02.464Z,5.49
2017-12-27T03:20:03.063Z,5.45
2017-12-27T03:20:03.662Z,5.46
2017-12-27T03:20:57.153Z,5.45
2017-12-27T03:20:57.714Z,5.48
2017-12-27T03:20:58.319Z,5.46
2017-12-27T03:20:58.962Z,5.50
2017-12-27T03:20:59.583Z,5.41
2017-12-27T03:21:00.113Z,5.49
2017-12-27T03:21:00.714Z,5.53
2017-12-27T03:21:01.312Z,5.50
2017-12-27T03:21:54.771Z,5.49
2017-12-27T03:21:55.370Z,5.48
2017-12-27T03:21:55.967Z,5.50
2017-12-27T03:21:56.570Z,5.45
2017-12-27T03:21:57.208Z,5.48
2017-12-27T03:21:57.807Z,5.48
2017-12-27T03:21:59.344Z,5.50
2017-12-27T03:22:53.343Z,5.50
2017-12-27T03:22:53.942Z,5.50
2017-12-27T03:22:54.541Z,5.46
2017-12-27T03:22:55.141Z,5.49
2017-12-27T03:22:55.740Z,5.49
2017-12-27T03:22:56.340Z,5.46
2017-12-27T03:22:56.940Z,5.50
2017-12-27T03:22:57.540Z,5.50
2017-12-27T03:23:50.996Z,5.35
2017-12-27T03:23:51.594Z,5.45
2017-12-27T03:23:52.194Z,5.41
2017-12-27T03:23:52.794Z,5.45
2017-12-27T03:23:53.392Z,5.43
2017-12-27T03:23:53.993Z,5.45
2017-12-27T03:23:54.592Z,5.45
2017-12-27T03:23:55.194Z,5.38
2017-12-27T03:24:48.651Z,5.50
2017-12-27T03:24:49.244Z,5.48
2017-12-27T03:24:49.843Z,5.35
2017-12-27T03:24:50.447Z,5.45
2017-12-27T03:24:51.045Z,5.43
2017-12-27T03:24:51.644Z,5.43
2017-12-27T03:24:52.243Z,5.46
2017-12-27T03:24:52.843Z,5.45
2017-12-27T03:25:46.299Z,5.41
2017-12-27T03:25:46.899Z,5.38
2017-12-27T03:25:47.496Z,5.50
2017-12-27T03:25:48.097Z,5.46
2017-12-27T03:25:48.701Z,5.46
2017-12-27T03:25:49.296Z,5.35
2017-12-27T03:25:49.896Z,5.50
2017-12-27T03:25:50.506Z,5.35
2017-12-27T03:26:45.009Z,5.38
2017-12-27T03:26:45.570Z,5.38
2017-12-27T03:26:46.172Z,5.34
2017-12-27T03:26:46.769Z,5.40
2017-12-27T03:26:47.370Z,5.43
2017-12-27T03:26:47.971Z,5.38
2017-12-27T03:26:48.571Z,5.37
2017-12-27T03:26:49.171Z,5.35
2017-12-27T03:27:43.137Z,5.31
2017-12-27T03:27:43.739Z,5.27
2017-12-27T03:27:44.334Z,5.38
2017-12-27T03:27:44.937Z,5.35
2017-12-27T03:27:45.534Z,5.32
2017-12-27T03:27:46.134Z,5.34
2017-12-27T03:27:46.733Z,5.35
2017-12-27T03:28:40.279Z,5.37
2017-12-27T03:28:40.875Z,5.40
2017-12-27T03:28:41.484Z,5.35
2017-12-27T03:28:42.080Z,5.34
2017-12-27T03:28:42.677Z,5.32
2017-12-27T03:28:43.275Z,5.32
2017-12-27T03:28:43.876Z,5.30
2017-12-27T03:28:44.475Z,5.30
2017-12-27T03:29:37.928Z,5.23
2017-12-27T03:29:38.527Z,5.32
2017-12-27T03:29:39.129Z,5.35
2017-12-27T03:29:39.728Z,5.31
2017-12-27T03:29:40.326Z,5.37
2017-12-27T03:29:40.925Z,5.28
2017-12-27T03:29:41.529Z,5.34
2017-12-27T03:29:42.126Z,5.32
2017-12-27T03:30:36.606Z,5.34
2017-12-27T03:30:37.202Z,5.35
2017-12-27T03:30:37.801Z,5.31
2017-12-27T03:30:38.401Z,5.27
2017-12-27T03:30:39.002Z,5.32
2017-12-27T03:30:39.602Z,5.31
2017-12-27T03:30:40.201Z,5.30
2017-12-27T03:30:40.800Z,5.27
2017-12-27T03:31:34.256Z,5.25
2017-12-27T03:31:34.854Z,5.31
2017-12-27T03:31:35.454Z,5.31
2017-12-27T03:31:36.056Z,5.30
2017-12-27T03:31:36.654Z,5.31
2017-12-27T03:31:37.253Z,5.28
2017-12-27T03:31:37.854Z,5.31
2017-12-27T03:31:38.453Z,5.27
2017-12-27T03:32:32.959Z,5.19
2017-12-27T03:32:33.529Z,5.27
2017-12-27T03:32:34.128Z,5.23
2017-12-27T03:32:34.733Z,5.20
2017-12-27T03:32:35.329Z,5.31
2017-12-27T03:32:35.930Z,5.28
2017-12-27T03:32:36.530Z,5.32
2017-12-27T03:32:37.127Z,5.25
2017-12-27T03:33:31.633Z,5.14
2017-12-27T03:33:32.204Z,5.22
2017-12-27T03:33:32.804Z,5.14
2017-12-27T03:33:33.406Z,5.30
2017-12-27T03:33:34.003Z,5.25
2017-12-27T03:33:34.643Z,5.22
2017-12-27T03:33:35.205Z,5.22
2017-12-27T03:33:35.804Z,5.17
2017-12-27T03:34:30.283Z,5.16
2017-12-27T03:34:30.881Z,5.19
2017-12-27T03:34:31.480Z,5.20
2017-12-27T03:34:32.082Z,5.25
2017-12-27T03:34:32.681Z,5.20
2017-12-27T03:34:33.280Z,5.19
2017-12-27T03:34:33.880Z,5.19
2017-12-27T03:34:34.478Z,5.17
2017-12-27T03:35:28.449Z,5.25
2017-12-27T03:35:29.044Z,5.19
2017-12-27T03:35:29.646Z,5.19
2017-12-27T03:35:30.245Z,5.23
2017-12-27T03:35:30.843Z,5.17
2017-12-27T03:35:31.443Z,5.14
2017-12-27T03:35:32.043Z,5.17
2017-12-27T03:36:25.588Z,5.22
2017-12-27T03:36:26.186Z,5.12
2017-12-27T03:36:26.785Z,5.16
2017-12-27T03:36:27.388Z,5.19
2017-12-27T03:36:27.987Z,5.20
2017-12-27T03:36:28.584Z,5.28
2017-12-27T03:36:29.182Z,5.22
2017-12-27T03:36:29.787Z,5.16
2017-12-27T03:37:24.818Z,5.25
2017-12-27T03:37:25.374Z,5.27